sensor_id;sensor_type;location;lat;lon;timestamp;P1;durP1;ratioP1;P2;durP2;ratioP2
34737;SDS011;39910;47.154;27.614;2022-09-02T00:00:51;10.10;;;9.60;;
34737;SDS011;39910;47.154;27.614;2022-09-02T00:03:18;9.93;;;9.52;;
34737;SDS011;39910;47.154;27.614;2022-09-02T00:05:44;9.88;;;9.48;;
34737;SDS011;39910;47.154;27.614;2022-09-02T00:08:10;10.00;;;9.60;;
34737;SDS011;39910;47.154;27.614;2022-09-02T00:10:37;9.77;;;9.38;;
34737;SDS011;39910;47.154;27.614;2022-09-02T00:13:06;9.90;;;9.50;;
34737;SDS011;39910;47.154;27.614;2022-09-02T00:15:33;10.20;;;9.70;;
34737;SDS011;39910;47.154;27.614;2022-09-02T00:17:59;10.05;;;9.60;;
34737;SDS011;39910;47.154;27.614;2022-09-02T00:20:26;10.20;;;9.70;;
34737;SDS011;39910;47.154;27.614;2022-09-02T00:22:54;9.70;;;9.30;;
34737;SDS011;39910;47.154;27.614;2022-09-02T00:25:20;10.20;;;9.70;;
34737;SDS011;39910;47.154;27.614;2022-09-02T00:27:47;9.90;;;9.50;;
34737;SDS011;39910;47.154;27.614;2022-09-02T00:30:13;10.10;;;9.60;;
34737;SDS011;39910;47.154;27.614;2022-09-02T00:32:39;9.80;;;9.40;;
34737;SDS011;39910;47.154;27.614;2022-09-02T00:35:04;10.30;;;9.80;;
34737;SDS011;39910;47.154;27.614;2022-09-02T00:37:30;10.27;;;9.77;;
34737;SDS011;39910;47.154;27.614;2022-09-02T00:39:56;10.00;;;9.50;;
34737;SDS011;39910;47.154;27.614;2022-09-02T00:42:22;10.10;;;9.60;;
34737;SDS011;39910;47.154;27.614;2022-09-02T00:44:49;9.85;;;9.45;;
34737;SDS011;39910;47.154;27.614;2022-09-02T00:47:15;10.10;;;9.60;;
34737;SDS011;39910;47.154;27.614;2022-09-02T00:49:43;10.18;;;9.68;;
34737;SDS011;39910;47.154;27.614;2022-09-02T00:52:23;9.70;;;9.30;;
34737;SDS011;39910;47.154;27.614;2022-09-02T00:55:08;10.35;;;9.85;;
34737;SDS011;39910;47.154;27.614;2022-09-02T00:57:37;9.60;;;9.20;;
34737;SDS011;39910;47.154;27.614;2022-09-02T01:00:08;9.40;;;9.00;;
34737;SDS011;39910;47.154;27.614;2022-09-02T01:02:43;10.18;;;9.68;;
34737;SDS011;39910;47.154;27.614;2022-09-02T01:05:14;9.75;;;9.35;;
34737;SDS011;39910;47.154;27.614;2022-09-02T01:07:42;9.63;;;9.23;;
34737;SDS011;39910;47.154;27.614;2022-09-02T01:10:11;9.80;;;9.40;;
34737;SDS011;39910;47.154;27.614;2022-09-02T01:12:38;9.80;;;9.40;;
34737;SDS011;39910;47.154;27.614;2022-09-02T01:15:05;10.02;;;9.52;;
34737;SDS011;39910;47.154;27.614;2022-09-02T01:17:33;10.20;;;9.70;;
34737;SDS011;39910;47.154;27.614;2022-09-02T01:20:06;9.80;;;9.40;;
34737;SDS011;39910;47.154;27.614;2022-09-02T01:22:36;9.80;;;9.40;;
34737;SDS011;39910;47.154;27.614;2022-09-02T01:25:04;9.43;;;9.02;;
34737;SDS011;39910;47.154;27.614;2022-09-02T01:27:33;9.70;;;9.30;;
34737;SDS011;39910;47.154;27.614;2022-09-02T01:29:59;9.82;;;9.43;;
34737;SDS011;39910;47.154;27.614;2022-09-02T01:32:26;10.13;;;9.63;;
34737;SDS011;39910;47.154;27.614;2022-09-02T01:34:53;9.60;;;9.20;;
34737;SDS011;39910;47.154;27.614;2022-09-02T01:37:19;10.20;;;9.70;;
34737;SDS011;39910;47.154;27.614;2022-09-02T01:39:45;10.05;;;9.55;;
34737;SDS011;39910;47.154;27.614;2022-09-02T01:42:11;10.40;;;9.90;;
34737;SDS011;39910;47.154;27.614;2022-09-02T01:44:37;10.10;;;9.60;;
34737;SDS011;39910;47.154;27.614;2022-09-02T01:47:11;10.60;;;10.10;;
34737;SDS011;39910;47.154;27.614;2022-09-02T01:49:38;10.18;;;9.68;;
34737;SDS011;39910;47.154;27.614;2022-09-02T01:52:03;10.13;;;9.63;;
34737;SDS011;39910;47.154;27.614;2022-09-02T01:54:29;10.00;;;9.50;;
34737;SDS011;39910;47.154;27.614;2022-09-02T01:56:55;10.10;;;9.60;;
34737;SDS011;39910;47.154;27.614;2022-09-02T01:59:20;10.10;;;9.60;;
34737;SDS011;39910;47.154;27.614;2022-09-02T02:01:46;10.20;;;9.70;;
34737;SDS011;39910;47.154;27.614;2022-09-02T02:04:12;10.27;;;9.77;;
34737;SDS011;39910;47.154;27.614;2022-09-02T02:06:41;10.20;;;9.70;;
34737;SDS011;39910;47.154;27.614;2022-09-02T02:09:09;10.30;;;9.80;;
34737;SDS011;39910;47.154;27.614;2022-09-02T02:11:36;10.10;;;9.60;;
34737;SDS011;39910;47.154;27.614;2022-09-02T02:14:03;9.82;;;9.43;;
34737;SDS011;39910;47.154;27.614;2022-09-02T02:16:29;10.40;;;9.90;;
34737;SDS011;39910;47.154;27.614;2022-09-02T02:18:54;10.20;;;9.70;;
34737;SDS011;39910;47.154;27.614;2022-09-02T02:21:20;10.35;;;9.85;;
34737;SDS011;39910;47.154;27.614;2022-09-02T02:23:45;9.80;;;9.40;;
34737;SDS011;39910;47.154;27.614;2022-09-02T02:26:11;10.20;;;9.70;;
34737;SDS011;39910;47.154;27.614;2022-09-02T02:28:37;10.18;;;9.68;;
34737;SDS011;39910;47.154;27.614;2022-09-02T02:31:02;10.20;;;9.70;;
34737;SDS011;39910;47.154;27.614;2022-09-02T02:33:29;10.10;;;9.60;;
34737;SDS011;39910;47.154;27.614;2022-09-02T02:35:55;10.27;;;9.77;;
34737;SDS011;39910;47.154;27.614;2022-09-02T02:38:21;10.25;;;9.75;;
34737;SDS011;39910;47.154;27.614;2022-09-02T02:40:46;9.90;;;9.50;;
34737;SDS011;39910;47.154;27.614;2022-09-02T02:43:12;10.18;;;9.68;;
34737;SDS011;39910;47.154;27.614;2022-09-02T02:45:38;10.30;;;9.80;;
34737;SDS011;39910;47.154;27.614;2022-09-02T02:48:03;10.10;;;9.60;;
34737;SDS011;39910;47.154;27.614;2022-09-02T02:50:29;10.18;;;9.68;;
34737;SDS011;39910;47.154;27.614;2022-09-02T02:52:55;9.70;;;9.30;;
34737;SDS011;39910;47.154;27.614;2022-09-02T02:55:21;10.20;;;9.70;;
34737;SDS011;39910;47.154;27.614;2022-09-02T02:57:48;9.88;;;9.48;;
34737;SDS011;39910;47.154;27.614;2022-09-02T03:00:16;10.55;;;10.05;;
34737;SDS011;39910;47.154;27.614;2022-09-02T03:02:45;10.13;;;9.63;;
34737;SDS011;39910;47.154;27.614;2022-09-02T03:05:12;10.60;;;10.10;;
34737;SDS011;39910;47.154;27.614;2022-09-02T03:07:38;10.25;;;9.75;;
34737;SDS011;39910;47.154;27.614;2022-09-02T03:10:05;10.45;;;9.95;;
34737;SDS011;39910;47.154;27.614;2022-09-02T03:12:35;9.82;;;9.43;;
34737;SDS011;39910;47.154;27.614;2022-09-02T03:15:03;10.45;;;9.95;;
34737;SDS011;39910;47.154;27.614;2022-09-02T03:17:30;10.70;;;10.20;;
34737;SDS011;39910;47.154;27.614;2022-09-02T03:19:55;10.60;;;10.10;;
34737;SDS011;39910;47.154;27.614;2022-09-02T03:22:23;10.55;;;10.05;;
34737;SDS011;39910;47.154;27.614;2022-09-02T03:24:50;9.73;;;9.32;;
34737;SDS011;39910;47.154;27.614;2022-09-02T03:27:16;10.15;;;9.65;;
34737;SDS011;39910;47.154;27.614;2022-09-02T03:29:41;10.65;;;10.15;;
34737;SDS011;39910;47.154;27.614;2022-09-02T03:32:08;10.38;;;9.88;;
34737;SDS011;39910;47.154;27.614;2022-09-02T03:34:34;10.15;;;9.65;;
34737;SDS011;39910;47.154;27.614;2022-09-02T03:36:59;10.30;;;9.80;;
34737;SDS011;39910;47.154;27.614;2022-09-02T03:39:25;10.30;;;9.80;;
34737;SDS011;39910;47.154;27.614;2022-09-02T03:41:50;10.52;;;10.02;;
34737;SDS011;39910;47.154;27.614;2022-09-02T03:44:17;11.00;;;10.50;;
34737;SDS011;39910;47.154;27.614;2022-09-02T03:46:43;11.10;;;10.60;;
34737;SDS011;39910;47.154;27.614;2022-09-02T03:49:09;10.82;;;10.32;;
34737;SDS011;39910;47.154;27.614;2022-09-02T03:51:37;11.10;;;10.60;;
34737;SDS011;39910;47.154;27.614;2022-09-02T03:54:04;10.70;;;10.20;;
34737;SDS011;39910;47.154;27.614;2022-09-02T03:56:31;10.55;;;10.05;;
34737;SDS011;39910;47.154;27.614;2022-09-02T03:58:57;10.40;;;9.90;;
34737;SDS011;39910;47.154;27.614;2022-09-02T04:01:24;10.25;;;9.75;;
34737;SDS011;39910;47.154;27.614;2022-09-02T04:03:50;10.43;;;9.93;;
34737;SDS011;39910;47.154;27.614;2022-09-02T04:06:16;10.57;;;10.07;;
34737;SDS011;39910;47.154;27.614;2022-09-02T04:08:44;10.23;;;9.73;;
34737;SDS011;39910;47.154;27.614;2022-09-02T04:11:12;10.18;;;9.68;;
34737;SDS011;39910;47.154;27.614;2022-09-02T04:13:42;10.32;;;9.82;;
34737;SDS011;39910;47.154;27.614;2022-09-02T04:16:09;10.07;;;9.60;;
34737;SDS011;39910;47.154;27.614;2022-09-02T04:18:37;10.15;;;9.65;;
34737;SDS011;39910;47.154;27.614;2022-09-02T04:21:03;10.40;;;9.90;;
34737;SDS011;39910;47.154;27.614;2022-09-02T04:23:30;10.15;;;9.65;;
34737;SDS011;39910;47.154;27.614;2022-09-02T04:25:56;10.98;;;10.48;;
34737;SDS011;39910;47.154;27.614;2022-09-02T04:28:22;9.98;;;9.50;;
34737;SDS011;39910;47.154;27.614;2022-09-02T04:30:49;10.38;;;9.88;;
34737;SDS011;39910;47.154;27.614;2022-09-02T04:33:15;10.27;;;9.77;;
34737;SDS011;39910;47.154;27.614;2022-09-02T04:35:42;10.48;;;9.98;;
34737;SDS011;39910;47.154;27.614;2022-09-02T04:38:09;10.43;;;9.93;;
34737;SDS011;39910;47.154;27.614;2022-09-02T04:40:38;10.73;;;10.23;;
34737;SDS011;39910;47.154;27.614;2022-09-02T04:43:08;10.85;;;10.35;;
34737;SDS011;39910;47.154;27.614;2022-09-02T04:45:34;11.10;;;10.60;;
34737;SDS011;39910;47.154;27.614;2022-09-02T04:47:59;10.50;;;10.00;;
34737;SDS011;39910;47.154;27.614;2022-09-02T04:50:25;10.60;;;10.10;;
34737;SDS011;39910;47.154;27.614;2022-09-02T04:52:50;10.60;;;10.10;;
34737;SDS011;39910;47.154;27.614;2022-09-02T04:55:16;10.32;;;9.82;;
34737;SDS011;39910;47.154;27.614;2022-09-02T04:57:42;10.68;;;10.18;;
34737;SDS011;39910;47.154;27.614;2022-09-02T05:00:07;10.52;;;10.02;;
34737;SDS011;39910;47.154;27.614;2022-09-02T05:02:34;10.68;;;10.18;;
34737;SDS011;39910;47.154;27.614;2022-09-02T05:04:59;10.20;;;9.70;;
34737;SDS011;39910;47.154;27.614;2022-09-02T05:07:25;9.85;;;9.40;;
34737;SDS011;39910;47.154;27.614;2022-09-02T05:09:59;10.40;;;9.90;;
34737;SDS011;39910;47.154;27.614;2022-09-02T05:12:26;10.30;;;9.80;;
34737;SDS011;39910;47.154;27.614;2022-09-02T05:14:52;10.85;;;10.35;;
34737;SDS011;39910;47.154;27.614;2022-09-02T05:17:20;10.30;;;9.80;;
34737;SDS011;39910;47.154;27.614;2022-09-02T05:19:46;9.98;;;9.57;;
34737;SDS011;39910;47.154;27.614;2022-09-02T05:22:12;10.55;;;10.05;;
34737;SDS011;39910;47.154;27.614;2022-09-02T05:24:38;10.30;;;9.80;;
34737;SDS011;39910;47.154;27.614;2022-09-02T05:27:04;10.05;;;9.60;;
34737;SDS011;39910;47.154;27.614;2022-09-02T05:29:29;10.52;;;10.02;;
34737;SDS011;39910;47.154;27.614;2022-09-02T05:31:55;10.65;;;10.15;;
34737;SDS011;39910;47.154;27.614;2022-09-02T05:34:20;10.45;;;9.95;;
34737;SDS011;39910;47.154;27.614;2022-09-02T05:36:46;10.48;;;9.98;;
34737;SDS011;39910;47.154;27.614;2022-09-02T05:39:12;10.60;;;10.10;;
34737;SDS011;39910;47.154;27.614;2022-09-02T05:41:37;10.60;;;10.10;;
34737;SDS011;39910;47.154;27.614;2022-09-02T05:44:03;10.88;;;10.38;;
34737;SDS011;39910;47.154;27.614;2022-09-02T05:46:30;10.77;;;10.27;;
34737;SDS011;39910;47.154;27.614;2022-09-02T05:48:57;9.90;;;9.50;;
34737;SDS011;39910;47.154;27.614;2022-09-02T05:51:54;10.90;;;10.40;;
34737;SDS011;39910;47.154;27.614;2022-09-02T05:54:40;10.57;;;10.07;;
34737;SDS011;39910;47.154;27.614;2022-09-02T05:57:07;10.15;;;9.65;;
34737;SDS011;39910;47.154;27.614;2022-09-02T05:59:35;9.75;;;9.35;;
34737;SDS011;39910;47.154;27.614;2022-09-02T06:02:06;10.63;;;10.13;;
34737;SDS011;39910;47.154;27.614;2022-09-02T06:04:43;10.43;;;9.93;;
34737;SDS011;39910;47.154;27.614;2022-09-02T06:07:12;10.05;;;9.63;;
34737;SDS011;39910;47.154;27.614;2022-09-02T06:09:38;10.90;;;10.40;;
34737;SDS011;39910;47.154;27.614;2022-09-02T06:12:05;10.45;;;9.95;;
34737;SDS011;39910;47.154;27.614;2022-09-02T06:14:31;10.55;;;10.05;;
34737;SDS011;39910;47.154;27.614;2022-09-02T06:16:57;10.35;;;9.85;;
34737;SDS011;39910;47.154;27.614;2022-09-02T06:19:24;10.20;;;9.70;;
34737;SDS011;39910;47.154;27.614;2022-09-02T06:21:53;10.43;;;9.93;;
34737;SDS011;39910;47.154;27.614;2022-09-02T06:24:19;10.77;;;10.27;;
34737;SDS011;39910;47.154;27.614;2022-09-02T06:26:45;9.90;;;9.50;;
34737;SDS011;39910;47.154;27.614;2022-09-02T06:29:11;10.00;;;9.60;;
34737;SDS011;39910;47.154;27.614;2022-09-02T06:31:39;10.30;;;9.80;;
34737;SDS011;39910;47.154;27.614;2022-09-02T06:34:09;10.70;;;10.20;;
34737;SDS011;39910;47.154;27.614;2022-09-02T06:36:37;10.40;;;9.90;;
34737;SDS011;39910;47.154;27.614;2022-09-02T06:39:04;10.30;;;9.80;;
34737;SDS011;39910;47.154;27.614;2022-09-02T06:41:30;9.85;;;9.45;;
34737;SDS011;39910;47.154;27.614;2022-09-02T06:44:02;10.27;;;9.77;;
34737;SDS011;39910;47.154;27.614;2022-09-02T06:46:30;10.43;;;9.93;;
34737;SDS011;39910;47.154;27.614;2022-09-02T06:48:57;10.65;;;10.15;;
34737;SDS011;39910;47.154;27.614;2022-09-02T06:51:26;11.52;;;10.95;;
34737;SDS011;39910;47.154;27.614;2022-09-02T06:53:56;11.75;;;11.15;;
34737;SDS011;39910;47.154;27.614;2022-09-02T06:56:23;11.75;;;11.15;;
34737;SDS011;39910;47.154;27.614;2022-09-02T06:58:50;11.43;;;10.93;;
34737;SDS011;39910;47.154;27.614;2022-09-02T07:01:21;11.35;;;10.85;;
34737;SDS011;39910;47.154;27.614;2022-09-02T07:03:49;11.73;;;11.15;;
34737;SDS011;39910;47.154;27.614;2022-09-02T07:06:37;11.43;;;10.93;;
34737;SDS011;39910;47.154;27.614;2022-09-02T07:09:08;12.15;;;11.55;;
34737;SDS011;39910;47.154;27.614;2022-09-02T07:11:35;11.02;;;10.52;;
34737;SDS011;39910;47.154;27.614;2022-09-02T07:14:01;11.25;;;10.75;;
34737;SDS011;39910;47.154;27.614;2022-09-02T07:16:29;10.93;;;10.43;;
34737;SDS011;39910;47.154;27.614;2022-09-02T07:18:57;11.43;;;10.93;;
34737;SDS011;39910;47.154;27.614;2022-09-02T07:21:25;11.68;;;11.13;;
34737;SDS011;39910;47.154;27.614;2022-09-02T07:23:53;11.07;;;10.57;;
34737;SDS011;39910;47.154;27.614;2022-09-02T07:26:20;11.15;;;10.65;;
34737;SDS011;39910;47.154;27.614;2022-09-02T07:28:45;11.10;;;10.60;;
34737;SDS011;39910;47.154;27.614;2022-09-02T07:31:12;10.80;;;10.30;;
34737;SDS011;39910;47.154;27.614;2022-09-02T07:33:39;11.30;;;10.80;;
34737;SDS011;39910;47.154;27.614;2022-09-02T07:36:04;11.23;;;10.73;;
34737;SDS011;39910;47.154;27.614;2022-09-02T07:38:31;11.35;;;10.85;;
34737;SDS011;39910;47.154;27.614;2022-09-02T07:40:58;11.20;;;10.70;;
34737;SDS011;39910;47.154;27.614;2022-09-02T07:43:25;12.48;;;11.88;;
34737;SDS011;39910;47.154;27.614;2022-09-02T07:45:52;10.93;;;10.43;;
34737;SDS011;39910;47.154;27.614;2022-09-02T07:48:20;11.15;;;10.65;;
34737;SDS011;39910;47.154;27.614;2022-09-02T07:50:46;11.13;;;10.63;;
34737;SDS011;39910;47.154;27.614;2022-09-02T07:53:12;11.10;;;10.60;;
34737;SDS011;39910;47.154;27.614;2022-09-02T07:55:39;11.40;;;10.90;;
34737;SDS011;39910;47.154;27.614;2022-09-02T07:58:05;11.30;;;10.80;;
34737;SDS011;39910;47.154;27.614;2022-09-02T08:00:31;10.65;;;10.15;;
34737;SDS011;39910;47.154;27.614;2022-09-02T08:02:57;11.00;;;10.50;;
34737;SDS011;39910;47.154;27.614;2022-09-02T08:05:22;11.35;;;10.85;;
34737;SDS011;39910;47.154;27.614;2022-09-02T08:07:48;11.10;;;10.60;;
34737;SDS011;39910;47.154;27.614;2022-09-02T08:10:14;11.45;;;10.95;;
34737;SDS011;39910;47.154;27.614;2022-09-02T08:12:40;11.25;;;10.75;;
34737;SDS011;39910;47.154;27.614;2022-09-02T08:15:08;11.10;;;10.60;;
34737;SDS011;39910;47.154;27.614;2022-09-02T08:17:36;11.02;;;10.52;;
34737;SDS011;39910;47.154;27.614;2022-09-02T08:20:05;11.30;;;10.80;;
34737;SDS011;39910;47.154;27.614;2022-09-02T08:22:36;10.25;;;9.75;;
34737;SDS011;39910;47.154;27.614;2022-09-02T08:25:02;10.98;;;10.48;;
34737;SDS011;39910;47.154;27.614;2022-09-02T08:27:28;11.13;;;10.63;;
34737;SDS011;39910;47.154;27.614;2022-09-02T08:29:54;11.10;;;10.60;;
34737;SDS011;39910;47.154;27.614;2022-09-02T08:32:19;11.43;;;10.93;;
34737;SDS011;39910;47.154;27.614;2022-09-02T08:34:45;11.25;;;10.75;;
34737;SDS011;39910;47.154;27.614;2022-09-02T08:37:10;11.45;;;10.95;;
34737;SDS011;39910;47.154;27.614;2022-09-02T08:39:36;11.00;;;10.50;;
34737;SDS011;39910;47.154;27.614;2022-09-02T08:44:45;11.15;;;10.65;;
34737;SDS011;39910;47.154;27.614;2022-09-02T08:47:15;10.98;;;10.48;;
34737;SDS011;39910;47.154;27.614;2022-09-02T08:49:47;11.18;;;10.68;;
34737;SDS011;39910;47.154;27.614;2022-09-02T08:52:34;10.65;;;10.15;;
34737;SDS011;39910;47.154;27.614;2022-09-02T08:55:09;10.07;;;9.63;;
34737;SDS011;39910;47.154;27.614;2022-09-02T08:57:41;10.68;;;10.18;;
34737;SDS011;39910;47.154;27.614;2022-09-02T09:00:09;10.60;;;10.10;;
34737;SDS011;39910;47.154;27.614;2022-09-02T09:08:20;10.77;;;10.27;;
34737;SDS011;39910;47.154;27.614;2022-09-02T09:16:40;10.60;;;10.10;;
34737;SDS011;39910;47.154;27.614;2022-09-02T09:19:12;10.35;;;9.85;;
34737;SDS011;39910;47.154;27.614;2022-09-02T09:21:41;10.80;;;10.30;;
34737;SDS011;39910;47.154;27.614;2022-09-02T09:24:17;10.88;;;10.38;;
34737;SDS011;39910;47.154;27.614;2022-09-02T09:26:51;11.27;;;10.77;;
34737;SDS011;39910;47.154;27.614;2022-09-02T09:29:20;10.65;;;10.15;;
34737;SDS011;39910;47.154;27.614;2022-09-02T09:31:48;11.20;;;10.70;;
34737;SDS011;39910;47.154;27.614;2022-09-02T09:34:45;11.55;;;11.05;;
34737;SDS011;39910;47.154;27.614;2022-09-02T09:39:57;11.18;;;10.68;;
34737;SDS011;39910;47.154;27.614;2022-09-02T09:42:30;11.35;;;10.85;;
34737;SDS011;39910;47.154;27.614;2022-09-02T09:45:08;11.40;;;10.90;;
34737;SDS011;39910;47.154;27.614;2022-09-02T09:47:42;11.25;;;10.75;;
34737;SDS011;39910;47.154;27.614;2022-09-02T09:50:12;10.80;;;10.30;;
34737;SDS011;39910;47.154;27.614;2022-09-02T09:52:43;10.52;;;10.02;;
34737;SDS011;39910;47.154;27.614;2022-09-02T09:57:46;11.00;;;10.50;;
34737;SDS011;39910;47.154;27.614;2022-09-02T10:00:20;11.20;;;10.70;;
34737;SDS011;39910;47.154;27.614;2022-09-02T10:02:54;11.07;;;10.57;;
34737;SDS011;39910;47.154;27.614;2022-09-02T10:07:59;11.27;;;10.77;;
34737;SDS011;39910;47.154;27.614;2022-09-02T10:10:27;11.75;;;11.20;;
34737;SDS011;39910;47.154;27.614;2022-09-02T10:13:00;10.95;;;10.45;;
34737;SDS011;39910;47.154;27.614;2022-09-02T10:15:52;10.57;;;10.07;;
34737;SDS011;39910;47.154;27.614;2022-09-02T10:27:26;11.23;;;10.73;;
34737;SDS011;39910;47.154;27.614;2022-09-02T10:38:09;11.30;;;10.80;;
34737;SDS011;39910;47.154;27.614;2022-09-02T10:46:16;11.15;;;10.65;;
34737;SDS011;39910;47.154;27.614;2022-09-02T10:48:52;11.65;;;11.15;;
34737;SDS011;39910;47.154;27.614;2022-09-02T10:51:35;11.73;;;11.23;;
34737;SDS011;39910;47.154;27.614;2022-09-02T10:54:12;10.90;;;10.40;;
34737;SDS011;39910;47.154;27.614;2022-09-02T10:56:52;10.73;;;10.23;;
34737;SDS011;39910;47.154;27.614;2022-09-02T10:59:26;11.18;;;10.68;;
34737;SDS011;39910;47.154;27.614;2022-09-02T11:02:05;12.13;;;11.52;;
34737;SDS011;39910;47.154;27.614;2022-09-02T11:04:54;10.85;;;10.35;;
34737;SDS011;39910;47.154;27.614;2022-09-02T11:07:44;10.95;;;10.45;;
34737;SDS011;39910;47.154;27.614;2022-09-02T11:10:14;11.02;;;10.52;;
34737;SDS011;39910;47.154;27.614;2022-09-02T11:12:48;10.80;;;10.30;;
34737;SDS011;39910;47.154;27.614;2022-09-02T11:18:17;11.48;;;10.98;;
34737;SDS011;39910;47.154;27.614;2022-09-02T11:24:14;11.05;;;10.55;;
34737;SDS011;39910;47.154;27.614;2022-09-02T11:32:30;11.10;;;10.60;;
34737;SDS011;39910;47.154;27.614;2022-09-02T11:35:08;11.07;;;10.57;;
34737;SDS011;39910;47.154;27.614;2022-09-02T11:37:40;10.93;;;10.43;;
34737;SDS011;39910;47.154;27.614;2022-09-02T11:40:24;11.15;;;10.65;;
34737;SDS011;39910;47.154;27.614;2022-09-02T11:42:57;11.57;;;11.07;;
34737;SDS011;39910;47.154;27.614;2022-09-02T11:45:37;10.80;;;10.30;;
34737;SDS011;39910;47.154;27.614;2022-09-02T11:54:40;10.82;;;10.32;;
34737;SDS011;39910;47.154;27.614;2022-09-02T11:57:10;11.25;;;10.75;;
34737;SDS011;39910;47.154;27.614;2022-09-02T12:07:55;11.20;;;10.70;;
34737;SDS011;39910;47.154;27.614;2022-09-02T12:13:36;11.48;;;10.98;;
34737;SDS011;39910;47.154;27.614;2022-09-02T12:21:23;11.98;;;11.38;;
34737;SDS011;39910;47.154;27.614;2022-09-02T12:29:09;11.57;;;11.07;;
34737;SDS011;39910;47.154;27.614;2022-09-02T12:31:49;11.50;;;11.00;;
34737;SDS011;39910;47.154;27.614;2022-09-02T12:41:55;11.20;;;10.70;;
34737;SDS011;39910;47.154;27.614;2022-09-02T12:44:49;11.30;;;10.80;;
34737;SDS011;39910;47.154;27.614;2022-09-02T12:55:12;12.02;;;11.43;;
34737;SDS011;39910;47.154;27.614;2022-09-02T12:57:40;11.35;;;10.85;;
34737;SDS011;39910;47.154;27.614;2022-09-02T13:00:16;11.77;;;11.23;;
34737;SDS011;39910;47.154;27.614;2022-09-02T13:17:26;11.18;;;10.68;;
34737;SDS011;39910;47.154;27.614;2022-09-02T13:28:57;10.77;;;10.27;;
34737;SDS011;39910;47.154;27.614;2022-09-02T13:31:37;11.23;;;10.73;;
34737;SDS011;39910;47.154;27.614;2022-09-02T13:34:09;11.07;;;10.57;;
34737;SDS011;39910;47.154;27.614;2022-09-02T13:36:39;11.40;;;10.90;;
34737;SDS011;39910;47.154;27.614;2022-09-02T13:39:17;10.75;;;10.25;;
34737;SDS011;39910;47.154;27.614;2022-09-02T13:41:45;11.98;;;11.38;;
34737;SDS011;39910;47.154;27.614;2022-09-02T13:44:23;11.18;;;10.68;;
34737;SDS011;39910;47.154;27.614;2022-09-02T13:47:03;11.43;;;10.93;;
34737;SDS011;39910;47.154;27.614;2022-09-02T13:49:40;10.90;;;10.40;;
34737;SDS011;39910;47.154;27.614;2022-09-02T13:52:10;11.32;;;10.82;;
34737;SDS011;39910;47.154;27.614;2022-09-02T13:54:39;11.35;;;10.85;;
34737;SDS011;39910;47.154;27.614;2022-09-02T13:57:10;11.00;;;10.50;;
34737;SDS011;39910;47.154;27.614;2022-09-02T13:59:47;12.10;;;11.50;;
34737;SDS011;39910;47.154;27.614;2022-09-02T14:02:25;11.30;;;10.80;;
34737;SDS011;39910;47.154;27.614;2022-09-02T14:04:54;11.50;;;11.00;;
34737;SDS011;39910;47.154;27.614;2022-09-02T14:07:31;11.23;;;10.73;;
34737;SDS011;39910;47.154;27.614;2022-09-02T14:10:08;12.00;;;11.40;;
34737;SDS011;39910;47.154;27.614;2022-09-02T14:12:38;12.00;;;11.40;;
34737;SDS011;39910;47.154;27.614;2022-09-02T14:15:05;10.90;;;10.40;;
34737;SDS011;39910;47.154;27.614;2022-09-02T14:17:32;11.50;;;11.00;;
34737;SDS011;39910;47.154;27.614;2022-09-02T14:22:37;11.07;;;10.57;;
34737;SDS011;39910;47.154;27.614;2022-09-02T14:25:16;12.02;;;11.43;;
34737;SDS011;39910;47.154;27.614;2022-09-02T14:27:52;10.90;;;10.40;;
34737;SDS011;39910;47.154;27.614;2022-09-02T14:30:38;11.40;;;10.90;;
34737;SDS011;39910;47.154;27.614;2022-09-02T14:33:14;11.95;;;11.35;;
34737;SDS011;39910;47.154;27.614;2022-09-02T14:38:27;11.63;;;11.07;;
34737;SDS011;39910;47.154;27.614;2022-09-02T14:41:18;11.48;;;10.98;;
34737;SDS011;39910;47.154;27.614;2022-09-02T14:46:25;11.63;;;11.07;;
34737;SDS011;39910;47.154;27.614;2022-09-02T14:48:53;11.23;;;10.73;;
34737;SDS011;39910;47.154;27.614;2022-09-02T14:51:20;12.15;;;11.55;;
34737;SDS011;39910;47.154;27.614;2022-09-02T14:53:47;12.18;;;11.57;;
34737;SDS011;39910;47.154;27.614;2022-09-02T14:56:12;11.95;;;11.35;;
34737;SDS011;39910;47.154;27.614;2022-09-02T14:58:38;11.88;;;11.27;;
34737;SDS011;39910;47.154;27.614;2022-09-02T15:01:03;11.35;;;10.85;;
34737;SDS011;39910;47.154;27.614;2022-09-02T15:03:35;12.75;;;12.15;;
34737;SDS011;39910;47.154;27.614;2022-09-02T15:06:02;11.95;;;11.35;;
34737;SDS011;39910;47.154;27.614;2022-09-02T15:08:27;11.63;;;11.07;;
34737;SDS011;39910;47.154;27.614;2022-09-02T15:10:53;12.30;;;11.70;;
34737;SDS011;39910;47.154;27.614;2022-09-02T15:15:51;11.85;;;11.25;;
34737;SDS011;39910;47.154;27.614;2022-09-02T15:18:19;12.30;;;11.70;;
34737;SDS011;39910;47.154;27.614;2022-09-02T15:20:46;11.20;;;10.70;;
34737;SDS011;39910;47.154;27.614;2022-09-02T15:23:13;11.35;;;10.85;;
34737;SDS011;39910;47.154;27.614;2022-09-02T15:25:39;12.32;;;11.73;;
34737;SDS011;39910;47.154;27.614;2022-09-02T15:28:05;12.15;;;11.55;;
34737;SDS011;39910;47.154;27.614;2022-09-02T15:30:32;12.15;;;11.55;;
34737;SDS011;39910;47.154;27.614;2022-09-02T15:33:01;12.38;;;11.77;;
34737;SDS011;39910;47.154;27.614;2022-09-02T15:35:29;12.32;;;11.73;;
34737;SDS011;39910;47.154;27.614;2022-09-02T15:37:56;11.52;;;11.00;;
34737;SDS011;39910;47.154;27.614;2022-09-02T15:40:22;12.43;;;11.82;;
34737;SDS011;39910;47.154;27.614;2022-09-02T15:42:47;12.25;;;11.65;;
34737;SDS011;39910;47.154;27.614;2022-09-02T15:45:13;11.60;;;11.00;;
34737;SDS011;39910;47.154;27.614;2022-09-02T15:47:39;11.27;;;10.77;;
34737;SDS011;39910;47.154;27.614;2022-09-02T15:50:05;12.15;;;11.55;;
34737;SDS011;39910;47.154;27.614;2022-09-02T15:52:34;11.05;;;10.55;;
34737;SDS011;39910;47.154;27.614;2022-09-02T15:55:00;11.48;;;10.93;;
34737;SDS011;39910;47.154;27.614;2022-09-02T15:57:26;11.63;;;11.05;;
34737;SDS011;39910;47.154;27.614;2022-09-02T15:59:52;11.40;;;10.90;;
34737;SDS011;39910;47.154;27.614;2022-09-02T16:02:18;11.95;;;11.35;;
34737;SDS011;39910;47.154;27.614;2022-09-02T16:04:43;11.88;;;11.27;;
34737;SDS011;39910;47.154;27.614;2022-09-02T16:07:09;11.90;;;11.30;;
34737;SDS011;39910;47.154;27.614;2022-09-02T16:09:35;12.48;;;11.88;;
34737;SDS011;39910;47.154;27.614;2022-09-02T16:12:00;11.43;;;10.90;;
34737;SDS011;39910;47.154;27.614;2022-09-02T16:14:26;11.05;;;10.55;;
34737;SDS011;39910;47.154;27.614;2022-09-02T16:16:52;11.73;;;11.13;;
34737;SDS011;39910;47.154;27.614;2022-09-02T16:19:19;12.30;;;11.70;;
34737;SDS011;39910;47.154;27.614;2022-09-02T16:21:46;11.00;;;10.50;;
34737;SDS011;39910;47.154;27.614;2022-09-02T16:24:12;11.30;;;10.80;;
34737;SDS011;39910;47.154;27.614;2022-09-02T16:26:39;11.73;;;11.13;;
34737;SDS011;39910;47.154;27.614;2022-09-02T16:29:07;11.73;;;11.13;;
34737;SDS011;39910;47.154;27.614;2022-09-02T16:31:34;11.00;;;10.50;;
34737;SDS011;39910;47.154;27.614;2022-09-02T16:34:03;12.07;;;11.48;;
34737;SDS011;39910;47.154;27.614;2022-09-02T16:36:32;11.15;;;10.65;;
34737;SDS011;39910;47.154;27.614;2022-09-02T16:39:00;11.48;;;10.93;;
34737;SDS011;39910;47.154;27.614;2022-09-02T16:41:30;10.90;;;10.40;;